sensor_id;sensor_type;location;lat;lon;timestamp;P1;durP1;ratioP1;P2;durP2;ratioP2
30147;SDS011;16960;49.404;8.248;2024-01-30T00:00:16;8.13;;;7.33;;
30147;SDS011;16960;49.404;8.248;2024-01-30T00:02:43;6.70;;;6.10;;
30147;SDS011;16960;49.404;8.248;2024-01-30T00:05:11;7.50;;;6.83;;
30147;SDS011;16960;49.404;8.248;2024-01-30T00:07:38;7.20;;;6.60;;
30147;SDS011;16960;49.404;8.248;2024-01-30T00:10:06;7.47;;;6.77;;
30147;SDS011;16960;49.404;8.248;2024-01-30T00:12:33;6.93;;;6.33;;
30147;SDS011;16960;49.404;8.248;2024-01-30T00:15:00;7.67;;;6.90;;
30147;SDS011;16960;49.404;8.248;2024-01-30T00:17:29;7.90;;;7.20;;
30147;SDS011;16960;49.404;8.248;2024-01-30T00:19:56;7.00;;;6.23;;
30147;SDS011;16960;49.404;8.248;2024-01-30T00:22:23;10.13;;;6.67;;
30147;SDS011;16960;49.404;8.248;2024-01-30T00:24:50;7.13;;;6.53;;
30147;SDS011;16960;49.404;8.248;2024-01-30T00:27:18;7.37;;;6.67;;
30147;SDS011;16960;49.404;8.248;2024-01-30T00:29:45;7.10;;;6.50;;
30147;SDS011;16960;49.404;8.248;2024-01-30T00:32:12;7.33;;;6.63;;
30147;SDS011;16960;49.404;8.248;2024-01-30T00:34:39;7.47;;;6.70;;
30147;SDS011;16960;49.404;8.248;2024-01-30T00:37:06;6.90;;;6.40;;
30147;SDS011;16960;49.404;8.248;2024-01-30T00:39:33;7.17;;;6.57;;
30147;SDS011;16960;49.404;8.248;2024-01-30T00:42:00;7.57;;;6.90;;
30147;SDS011;16960;49.404;8.248;2024-01-30T00:44:28;7.40;;;6.80;;
30147;SDS011;16960;49.404;8.248;2024-01-30T00:46:55;6.60;;;6.00;;
30147;SDS011;16960;49.404;8.248;2024-01-30T00:49:22;8.30;;;7.47;;
30147;SDS011;16960;49.404;8.248;2024-01-30T00:51:49;7.43;;;6.77;;
30147;SDS011;16960;49.404;8.248;2024-01-30T00:54:16;7.47;;;6.77;;
30147;SDS011;16960;49.404;8.248;2024-01-30T00:56:42;7.87;;;7.00;;
30147;SDS011;16960;49.404;8.248;2024-01-30T00:59:10;6.80;;;6.30;;
30147;SDS011;16960;49.404;8.248;2024-01-30T01:01:39;7.47;;;6.77;;
30147;SDS011;16960;49.404;8.248;2024-01-30T01:04:06;6.40;;;5.90;;
30147;SDS011;16960;49.404;8.248;2024-01-30T01:06:33;6.87;;;6.37;;
30147;SDS011;16960;49.404;8.248;2024-01-30T01:09:00;6.93;;;6.43;;
30147;SDS011;16960;49.404;8.248;2024-01-30T01:11:28;6.83;;;6.30;;
30147;SDS011;16960;49.404;8.248;2024-01-30T01:13:54;7.70;;;7.00;;
30147;SDS011;16960;49.404;8.248;2024-01-30T01:16:21;6.83;;;6.33;;
30147;SDS011;16960;49.404;8.248;2024-01-30T01:18:50;7.23;;;6.63;;
30147;SDS011;16960;49.404;8.248;2024-01-30T01:21:16;6.50;;;6.00;;
30147;SDS011;16960;49.404;8.248;2024-01-30T01:23:43;8.20;;;6.70;;
30147;SDS011;16960;49.404;8.248;2024-01-30T01:26:10;8.30;;;7.50;;
30147;SDS011;16960;49.404;8.248;2024-01-30T01:28:39;7.50;;;6.90;;
30147;SDS011;16960;49.404;8.248;2024-01-30T01:31:06;7.33;;;6.73;;
30147;SDS011;16960;49.404;8.248;2024-01-30T01:33:34;7.40;;;6.83;;
30147;SDS011;16960;49.404;8.248;2024-01-30T01:36:03;7.00;;;6.40;;
30147;SDS011;16960;49.404;8.248;2024-01-30T01:38:31;8.10;;;7.40;;
30147;SDS011;16960;49.404;8.248;2024-01-30T01:40:58;6.70;;;6.20;;
30147;SDS011;16960;49.404;8.248;2024-01-30T01:43:25;7.60;;;7.00;;
30147;SDS011;16960;49.404;8.248;2024-01-30T01:45:52;6.73;;;6.13;;
30147;SDS011;16960;49.404;8.248;2024-01-30T01:48:19;7.37;;;6.77;;
30147;SDS011;16960;49.404;8.248;2024-01-30T01:50:46;7.03;;;6.43;;
30147;SDS011;16960;49.404;8.248;2024-01-30T01:53:15;7.43;;;6.87;;
30147;SDS011;16960;49.404;8.248;2024-01-30T01:55:42;7.30;;;6.70;;
30147;SDS011;16960;49.404;8.248;2024-01-30T01:58:10;7.23;;;6.63;;
30147;SDS011;16960;49.404;8.248;2024-01-30T02:00:38;7.07;;;6.47;;
30147;SDS011;16960;49.404;8.248;2024-01-30T02:03:06;7.90;;;7.30;;
30147;SDS011;16960;49.404;8.248;2024-01-30T02:05:36;7.67;;;6.53;;
30147;SDS011;16960;49.404;8.248;2024-01-30T02:08:04;6.70;;;6.20;;
30147;SDS011;16960;49.404;8.248;2024-01-30T02:10:33;7.07;;;6.57;;
30147;SDS011;16960;49.404;8.248;2024-01-30T02:13:00;7.63;;;6.93;;
30147;SDS011;16960;49.404;8.248;2024-01-30T02:15:27;6.77;;;6.20;;
30147;SDS011;16960;49.404;8.248;2024-01-30T02:17:55;7.43;;;6.73;;
30147;SDS011;16960;49.404;8.248;2024-01-30T02:20:22;7.57;;;6.97;;
30147;SDS011;16960;49.404;8.248;2024-01-30T02:22:52;6.90;;;6.33;;
30147;SDS011;16960;49.404;8.248;2024-01-30T02:25:20;6.60;;;6.10;;
30147;SDS011;16960;49.404;8.248;2024-01-30T02:27:56;7.00;;;6.40;;
30147;SDS011;16960;49.404;8.248;2024-01-30T02:30:22;7.67;;;7.07;;
30147;SDS011;16960;49.404;8.248;2024-01-30T02:32:49;7.33;;;6.73;;
30147;SDS011;16960;49.404;8.248;2024-01-30T02:35:16;7.13;;;6.53;;
30147;SDS011;16960;49.404;8.248;2024-01-30T02:37:43;8.50;;;7.80;;
30147;SDS011;16960;49.404;8.248;2024-01-30T02:40:12;6.70;;;6.10;;
30147;SDS011;16960;49.404;8.248;2024-01-30T02:42:39;6.83;;;6.30;;
30147;SDS011;16960;49.404;8.248;2024-01-30T02:45:07;7.63;;;7.03;;
30147;SDS011;16960;49.404;8.248;2024-01-30T02:47:35;7.23;;;6.63;;
30147;SDS011;16960;49.404;8.248;2024-01-30T02:50:02;6.77;;;6.27;;
30147;SDS011;16960;49.404;8.248;2024-01-30T02:52:29;7.83;;;7.17;;
30147;SDS011;16960;49.404;8.248;2024-01-30T02:54:56;7.90;;;7.20;;
30147;SDS011;16960;49.404;8.248;2024-01-30T02:57:24;7.30;;;6.70;;
30147;SDS011;16960;49.404;8.248;2024-01-30T02:59:51;7.23;;;6.70;;
30147;SDS011;16960;49.404;8.248;2024-01-30T03:02:18;7.03;;;6.43;;
30147;SDS011;16960;49.404;8.248;2024-01-30T03:04:45;7.83;;;7.13;;
30147;SDS011;16960;49.404;8.248;2024-01-30T03:07:12;7.70;;;7.00;;
30147;SDS011;16960;49.404;8.248;2024-01-30T03:09:41;7.20;;;6.60;;
30147;SDS011;16960;49.404;8.248;2024-01-30T03:12:08;7.43;;;6.80;;
30147;SDS011;16960;49.404;8.248;2024-01-30T03:14:36;7.20;;;6.70;;
30147;SDS011;16960;49.404;8.248;2024-01-30T03:17:03;7.27;;;6.77;;
30147;SDS011;16960;49.404;8.248;2024-01-30T03:19:30;6.67;;;6.17;;
30147;SDS011;16960;49.404;8.248;2024-01-30T03:21:57;8.20;;;7.50;;
30147;SDS011;16960;49.404;8.248;2024-01-30T03:24:24;6.67;;;6.17;;
30147;SDS011;16960;49.404;8.248;2024-01-30T03:26:51;6.93;;;6.33;;
30147;SDS011;16960;49.404;8.248;2024-01-30T03:29:18;7.07;;;6.57;;
30147;SDS011;16960;49.404;8.248;2024-01-30T03:31:46;7.23;;;6.70;;
30147;SDS011;16960;49.404;8.248;2024-01-30T03:34:13;6.60;;;6.10;;
30147;SDS011;16960;49.404;8.248;2024-01-30T03:36:40;6.77;;;6.23;;
30147;SDS011;16960;49.404;8.248;2024-01-30T03:39:07;7.37;;;6.67;;
30147;SDS011;16960;49.404;8.248;2024-01-30T03:41:34;6.10;;;5.60;;
30147;SDS011;16960;49.404;8.248;2024-01-30T03:44:01;6.87;;;6.27;;
30147;SDS011;16960;49.404;8.248;2024-01-30T03:46:28;7.50;;;6.80;;
30147;SDS011;16960;49.404;8.248;2024-01-30T03:48:56;7.43;;;6.83;;
30147;SDS011;16960;49.404;8.248;2024-01-30T03:51:23;7.30;;;6.70;;
30147;SDS011;16960;49.404;8.248;2024-01-30T03:53:50;6.90;;;6.40;;
30147;SDS011;16960;49.404;8.248;2024-01-30T03:56:17;7.30;;;6.80;;
30147;SDS011;16960;49.404;8.248;2024-01-30T03:58:44;7.33;;;6.73;;
30147;SDS011;16960;49.404;8.248;2024-01-30T04:01:12;6.83;;;6.30;;
30147;SDS011;16960;49.404;8.248;2024-01-30T04:03:40;7.37;;;6.67;;
30147;SDS011;16960;49.404;8.248;2024-01-30T04:06:10;7.40;;;6.80;;
30147;SDS011;16960;49.404;8.248;2024-01-30T04:08:37;6.43;;;5.93;;
30147;SDS011;16960;49.404;8.248;2024-01-30T04:11:04;6.80;;;6.30;;
30147;SDS011;16960;49.404;8.248;2024-01-30T04:13:31;6.47;;;5.97;;
30147;SDS011;16960;49.404;8.248;2024-01-30T04:15:58;5.93;;;5.53;;
30147;SDS011;16960;49.404;8.248;2024-01-30T04:18:26;6.90;;;6.20;;
30147;SDS011;16960;49.404;8.248;2024-01-30T04:20:53;6.87;;;6.37;;
30147;SDS011;16960;49.404;8.248;2024-01-30T04:23:22;7.73;;;7.13;;
30147;SDS011;16960;49.404;8.248;2024-01-30T04:25:49;6.60;;;6.10;;
30147;SDS011;16960;49.404;8.248;2024-01-30T04:28:15;7.30;;;6.70;;
30147;SDS011;16960;49.404;8.248;2024-01-30T04:30:42;6.87;;;6.27;;
30147;SDS011;16960;49.404;8.248;2024-01-30T04:33:10;7.40;;;6.80;;
30147;SDS011;16960;49.404;8.248;2024-01-30T04:35:37;7.20;;;6.50;;
30147;SDS011;16960;49.404;8.248;2024-01-30T04:38:04;7.37;;;6.73;;
30147;SDS011;16960;49.404;8.248;2024-01-30T04:40:32;7.47;;;6.83;;
30147;SDS011;16960;49.404;8.248;2024-01-30T04:42:59;6.43;;;5.93;;
30147;SDS011;16960;49.404;8.248;2024-01-30T04:45:26;6.07;;;5.63;;
30147;SDS011;16960;49.404;8.248;2024-01-30T04:47:53;7.60;;;6.90;;
30147;SDS011;16960;49.404;8.248;2024-01-30T04:50:20;7.87;;;7.17;;
30147;SDS011;16960;49.404;8.248;2024-01-30T04:52:47;7.87;;;7.27;;
30147;SDS011;16960;49.404;8.248;2024-01-30T04:55:14;6.50;;;6.00;;
30147;SDS011;16960;49.404;8.248;2024-01-30T04:57:42;6.47;;;5.97;;
30147;SDS011;16960;49.404;8.248;2024-01-30T05:00:09;6.50;;;6.00;;
30147;SDS011;16960;49.404;8.248;2024-01-30T05:02:37;7.10;;;6.60;;
30147;SDS011;16960;49.404;8.248;2024-01-30T05:05:04;6.57;;;6.03;;
30147;SDS011;16960;49.404;8.248;2024-01-30T05:07:32;7.10;;;6.50;;
30147;SDS011;16960;49.404;8.248;2024-01-30T05:10:00;6.40;;;5.90;;
30147;SDS011;16960;49.404;8.248;2024-01-30T05:12:27;6.37;;;5.80;;
30147;SDS011;16960;49.404;8.248;2024-01-30T05:14:55;6.33;;;5.83;;
30147;SDS011;16960;49.404;8.248;2024-01-30T05:17:22;6.43;;;5.93;;
30147;SDS011;16960;49.404;8.248;2024-01-30T05:19:49;6.50;;;5.90;;
30147;SDS011;16960;49.404;8.248;2024-01-30T05:22:16;6.87;;;6.30;;
30147;SDS011;16960;49.404;8.248;2024-01-30T05:24:43;6.30;;;5.80;;
30147;SDS011;16960;49.404;8.248;2024-01-30T05:27:10;6.47;;;5.97;;
30147;SDS011;16960;49.404;8.248;2024-01-30T05:29:38;6.30;;;5.80;;
30147;SDS011;16960;49.404;8.248;2024-01-30T05:32:07;8.53;;;5.90;;
30147;SDS011;16960;49.404;8.248;2024-01-30T05:34:33;6.60;;;6.10;;
30147;SDS011;16960;49.404;8.248;2024-01-30T05:37:01;6.67;;;6.17;;
30147;SDS011;16960;49.404;8.248;2024-01-30T05:39:28;6.00;;;5.50;;
30147;SDS011;16960;49.404;8.248;2024-01-30T05:41:58;6.13;;;5.63;;
30147;SDS011;16960;49.404;8.248;2024-01-30T05:44:24;5.90;;;5.43;;
30147;SDS011;16960;49.404;8.248;2024-01-30T05:46:51;7.60;;;6.37;;
30147;SDS011;16960;49.404;8.248;2024-01-30T05:49:20;6.10;;;5.60;;
30147;SDS011;16960;49.404;8.248;2024-01-30T05:51:46;6.27;;;5.77;;
30147;SDS011;16960;49.404;8.248;2024-01-30T05:54:13;6.53;;;6.03;;
30147;SDS011;16960;49.404;8.248;2024-01-30T05:56:40;6.80;;;6.30;;
30147;SDS011;16960;49.404;8.248;2024-01-30T05:59:07;6.37;;;5.87;;
30147;SDS011;16960;49.404;8.248;2024-01-30T06:01:34;5.83;;;5.33;;
30147;SDS011;16960;49.404;8.248;2024-01-30T06:04:01;6.83;;;6.33;;
30147;SDS011;16960;49.404;8.248;2024-01-30T06:06:29;6.47;;;5.97;;
30147;SDS011;16960;49.404;8.248;2024-01-30T06:08:56;6.50;;;6.00;;
30147;SDS011;16960;49.404;8.248;2024-01-30T06:11:23;7.13;;;6.60;;
30147;SDS011;16960;49.404;8.248;2024-01-30T06:13:50;6.47;;;5.97;;
30147;SDS011;16960;49.404;8.248;2024-01-30T06:16:17;6.07;;;5.57;;
30147;SDS011;16960;49.404;8.248;2024-01-30T06:18:46;6.83;;;6.30;;
30147;SDS011;16960;49.404;8.248;2024-01-30T06:21:12;7.03;;;6.50;;
30147;SDS011;16960;49.404;8.248;2024-01-30T06:23:41;6.60;;;6.10;;
30147;SDS011;16960;49.404;8.248;2024-01-30T06:26:08;5.87;;;5.37;;
30147;SDS011;16960;49.404;8.248;2024-01-30T06:28:35;6.77;;;6.27;;
30147;SDS011;16960;49.404;8.248;2024-01-30T06:31:02;8.30;;;6.27;;
30147;SDS011;16960;49.404;8.248;2024-01-30T06:33:29;6.47;;;5.97;;
30147;SDS011;16960;49.404;8.248;2024-01-30T06:35:56;6.50;;;6.00;;
30147;SDS011;16960;49.404;8.248;2024-01-30T06:38:23;6.13;;;5.63;;
30147;SDS011;16960;49.404;8.248;2024-01-30T06:40:51;6.70;;;6.20;;
30147;SDS011;16960;49.404;8.248;2024-01-30T06:43:18;6.63;;;6.20;;
30147;SDS011;16960;49.404;8.248;2024-01-30T06:45:45;6.70;;;6.10;;
30147;SDS011;16960;49.404;8.248;2024-01-30T06:48:12;7.93;;;5.17;;
30147;SDS011;16960;49.404;8.248;2024-01-30T06:50:39;6.07;;;5.60;;
30147;SDS011;16960;49.404;8.248;2024-01-30T06:53:06;7.03;;;6.37;;
30147;SDS011;16960;49.404;8.248;2024-01-30T06:55:33;7.13;;;6.40;;
30147;SDS011;16960;49.404;8.248;2024-01-30T06:58:01;6.53;;;6.03;;
30147;SDS011;16960;49.404;8.248;2024-01-30T07:00:28;5.73;;;5.23;;
30147;SDS011;16960;49.404;8.248;2024-01-30T07:02:55;6.93;;;6.00;;
30147;SDS011;16960;49.404;8.248;2024-01-30T07:05:21;6.53;;;6.03;;
30147;SDS011;16960;49.404;8.248;2024-01-30T07:07:48;9.90;;;6.20;;
30147;SDS011;16960;49.404;8.248;2024-01-30T07:10:16;6.87;;;6.17;;
30147;SDS011;16960;49.404;8.248;2024-01-30T07:12:42;6.43;;;5.90;;
30147;SDS011;16960;49.404;8.248;2024-01-30T07:15:11;7.17;;;6.60;;
30147;SDS011;16960;49.404;8.248;2024-01-30T07:17:41;6.07;;;5.67;;
30147;SDS011;16960;49.404;8.248;2024-01-30T07:20:08;6.10;;;5.70;;
30147;SDS011;16960;49.404;8.248;2024-01-30T07:22:36;6.83;;;5.93;;
30147;SDS011;16960;49.404;8.248;2024-01-30T07:25:03;8.93;;;5.40;;
30147;SDS011;16960;49.404;8.248;2024-01-30T07:27:30;6.23;;;5.70;;
30147;SDS011;16960;49.404;8.248;2024-01-30T07:29:57;7.20;;;6.60;;
30147;SDS011;16960;49.404;8.248;2024-01-30T07:32:26;7.00;;;6.47;;
30147;SDS011;16960;49.404;8.248;2024-01-30T07:34:52;7.07;;;6.40;;
30147;SDS011;16960;49.404;8.248;2024-01-30T07:37:19;6.47;;;5.97;;
30147;SDS011;16960;49.404;8.248;2024-01-30T07:39:46;5.93;;;5.50;;
30147;SDS011;16960;49.404;8.248;2024-01-30T07:42:13;6.40;;;5.90;;
30147;SDS011;16960;49.404;8.248;2024-01-30T07:44:41;6.57;;;5.97;;
30147;SDS011;16960;49.404;8.248;2024-01-30T07:47:08;7.60;;;6.90;;
30147;SDS011;16960;49.404;8.248;2024-01-30T07:49:36;6.50;;;6.00;;
30147;SDS011;16960;49.404;8.248;2024-01-30T07:52:03;6.73;;;6.23;;
30147;SDS011;16960;49.404;8.248;2024-01-30T07:54:31;6.20;;;5.70;;
30147;SDS011;16960;49.404;8.248;2024-01-30T07:56:59;7.77;;;6.10;;
30147;SDS011;16960;49.404;8.248;2024-01-30T07:59:26;6.07;;;5.57;;
30147;SDS011;16960;49.404;8.248;2024-01-30T08:01:55;7.33;;;6.63;;
30147;SDS011;16960;49.404;8.248;2024-01-30T08:04:22;7.57;;;5.90;;
30147;SDS011;16960;49.404;8.248;2024-01-30T08:06:51;6.50;;;6.00;;
30147;SDS011;16960;49.404;8.248;2024-01-30T08:09:17;6.57;;;6.07;;
30147;SDS011;16960;49.404;8.248;2024-01-30T08:11:44;6.70;;;6.20;;
30147;SDS011;16960;49.404;8.248;2024-01-30T08:14:11;6.73;;;6.03;;
30147;SDS011;16960;49.404;8.248;2024-01-30T08:16:39;7.20;;;5.50;;
30147;SDS011;16960;49.404;8.248;2024-01-30T08:19:05;6.83;;;6.23;;
30147;SDS011;16960;49.404;8.248;2024-01-30T08:21:32;6.20;;;5.70;;
30147;SDS011;16960;49.404;8.248;2024-01-30T08:24:03;5.50;;;5.10;;
30147;SDS011;16960;49.404;8.248;2024-01-30T08:28:57;6.00;;;5.50;;
30147;SDS011;16960;49.404;8.248;2024-01-30T08:31:24;7.13;;;6.53;;
30147;SDS011;16960;49.404;8.248;2024-01-30T08:33:51;6.47;;;5.97;;
30147;SDS011;16960;49.404;8.248;2024-01-30T08:36:19;6.73;;;6.23;;
30147;SDS011;16960;49.404;8.248;2024-01-30T08:38:46;6.53;;;6.03;;
30147;SDS011;16960;49.404;8.248;2024-01-30T08:41:14;6.50;;;6.00;;
30147;SDS011;16960;49.404;8.248;2024-01-30T08:43:41;5.63;;;5.23;;
30147;SDS011;16960;49.404;8.248;2024-01-30T08:46:09;6.60;;;6.00;;
30147;SDS011;16960;49.404;8.248;2024-01-30T08:48:36;5.90;;;5.50;;
30147;SDS011;16960;49.404;8.248;2024-01-30T08:51:03;6.23;;;5.70;;
30147;SDS011;16960;49.404;8.248;2024-01-30T08:53:33;5.83;;;5.33;;
30147;SDS011;16960;49.404;8.248;2024-01-30T08:56:01;6.00;;;5.60;;
30147;SDS011;16960;49.404;8.248;2024-01-30T08:58:30;6.60;;;5.90;;
30147;SDS011;16960;49.404;8.248;2024-01-30T09:00:56;6.33;;;5.83;;
30147;SDS011;16960;49.404;8.248;2024-01-30T09:03:23;6.27;;;5.77;;
30147;SDS011;16960;49.404;8.248;2024-01-30T09:05:50;6.23;;;5.73;;
30147;SDS011;16960;49.404;8.248;2024-01-30T09:08:17;6.80;;;6.20;;
30147;SDS011;16960;49.404;8.248;2024-01-30T09:10:44;7.07;;;6.47;;
30147;SDS011;16960;49.404;8.248;2024-01-30T09:13:11;7.23;;;6.53;;
30147;SDS011;16960;49.404;8.248;2024-01-30T09:15:39;5.87;;;5.47;;
30147;SDS011;16960;49.404;8.248;2024-01-30T09:18:06;6.97;;;6.40;;
30147;SDS011;16960;49.404;8.248;2024-01-30T09:20:33;6.33;;;5.90;;
30147;SDS011;16960;49.404;8.248;2024-01-30T09:23:00;6.30;;;5.80;;
30147;SDS011;16960;49.404;8.248;2024-01-30T09:25:27;6.10;;;5.60;;
30147;SDS011;16960;49.404;8.248;2024-01-30T09:27:54;6.40;;;5.90;;
30147;SDS011;16960;49.404;8.248;2024-01-30T09:30:21;6.30;;;5.80;;
30147;SDS011;16960;49.404;8.248;2024-01-30T09:32:49;6.30;;;5.70;;
30147;SDS011;16960;49.404;8.248;2024-01-30T09:35:16;6.60;;;6.10;;
30147;SDS011;16960;49.404;8.248;2024-01-30T09:37:43;5.90;;;5.40;;
30147;SDS011;16960;49.404;8.248;2024-01-30T09:40:10;6.30;;;5.70;;
30147;SDS011;16960;49.404;8.248;2024-01-30T09:42:37;6.77;;;6.27;;
30147;SDS011;16960;49.404;8.248;2024-01-30T09:45:05;6.10;;;5.60;;
30147;SDS011;16960;49.404;8.248;2024-01-30T09:47:32;6.77;;;6.27;;
30147;SDS011;16960;49.404;8.248;2024-01-30T09:50:08;7.10;;;6.50;;
30147;SDS011;16960;49.404;8.248;2024-01-30T09:52:36;6.20;;;5.80;;
30147;SDS011;16960;49.404;8.248;2024-01-30T09:55:05;6.67;;;6.07;;
30147;SDS011;16960;49.404;8.248;2024-01-30T09:57:32;5.90;;;5.50;;
30147;SDS011;16960;49.404;8.248;2024-01-30T10:00:00;6.37;;;5.77;;
30147;SDS011;16960;49.404;8.248;2024-01-30T10:02:27;6.17;;;5.67;;
30147;SDS011;16960;49.404;8.248;2024-01-30T10:04:53;7.73;;;6.37;;
30147;SDS011;16960;49.404;8.248;2024-01-30T10:07:21;6.20;;;5.63;;
30147;SDS011;16960;49.404;8.248;2024-01-30T10:09:48;6.63;;;6.03;;
30147;SDS011;16960;49.404;8.248;2024-01-30T10:12:15;6.80;;;6.20;;
30147;SDS011;16960;49.404;8.248;2024-01-30T10:14:42;5.70;;;5.30;;
30147;SDS011;16960;49.404;8.248;2024-01-30T10:17:09;6.50;;;6.00;;
30147;SDS011;16960;49.404;8.248;2024-01-30T10:19:37;6.83;;;6.23;;
30147;SDS011;16960;49.404;8.248;2024-01-30T10:22:04;5.90;;;5.50;;
30147;SDS011;16960;49.404;8.248;2024-01-30T10:24:33;5.97;;;5.50;;
30147;SDS011;16960;49.404;8.248;2024-01-30T10:27:00;6.67;;;6.20;;
30147;SDS011;16960;49.404;8.248;2024-01-30T10:29:27;6.50;;;6.00;;
30147;SDS011;16960;49.404;8.248;2024-01-30T10:31:57;8.77;;;6.00;;
30147;SDS011;16960;49.404;8.248;2024-01-30T10:34:25;6.40;;;5.90;;
30147;SDS011;16960;49.404;8.248;2024-01-30T10:36:55;6.43;;;5.80;;
30147;SDS011;16960;49.404;8.248;2024-01-30T10:39:28;7.37;;;6.63;;
30147;SDS011;16960;49.404;8.248;2024-01-30T10:41:59;7.07;;;6.47;;
30147;SDS011;16960;49.404;8.248;2024-01-30T10:44:33;6.13;;;5.60;;
30147;SDS011;16960;49.404;8.248;2024-01-30T10:47:06;5.60;;;5.20;;
30147;SDS011;16960;49.404;8.248;2024-01-30T10:49:37;6.53;;;5.93;;
30147;SDS011;16960;49.404;8.248;2024-01-30T10:52:07;7.20;;;6.60;;
30147;SDS011;16960;49.404;8.248;2024-01-30T10:54:35;5.63;;;5.23;;
30147;SDS011;16960;49.404;8.248;2024-01-30T10:57:05;6.10;;;5.60;;
30147;SDS011;16960;49.404;8.248;2024-01-30T10:59:33;6.23;;;5.47;;
30147;SDS011;16960;49.404;8.248;2024-01-30T11:02:01;6.20;;;5.70;;
30147;SDS011;16960;49.404;8.248;2024-01-30T11:04:35;6.20;;;5.80;;
30147;SDS011;16960;49.404;8.248;2024-01-30T11:07:03;6.40;;;5.90;;
30147;SDS011;16960;49.404;8.248;2024-01-30T11:09:47;6.40;;;5.90;;
30147;SDS011;16960;49.404;8.248;2024-01-30T11:12:18;6.57;;;6.07;;
30147;SDS011;16960;49.404;8.248;2024-01-30T11:14:48;6.30;;;5.80;;
30147;SDS011;16960;49.404;8.248;2024-01-30T11:17:15;6.13;;;5.67;;
30147;SDS011;16960;49.404;8.248;2024-01-30T11:19:42;6.00;;;5.50;;
30147;SDS011;16960;49.404;8.248;2024-01-30T11:22:10;6.30;;;5.90;;
30147;SDS011;16960;49.404;8.248;2024-01-30T11:24:39;6.17;;;5.67;;
30147;SDS011;16960;49.404;8.248;2024-01-30T11:27:08;6.90;;;6.40;;
30147;SDS011;16960;49.404;8.248;2024-01-30T11:29:37;5.53;;;5.13;;
30147;SDS011;16960;49.404;8.248;2024-01-30T11:32:04;6.00;;;5.60;;
30147;SDS011;16960;49.404;8.248;2024-01-30T11:34:32;6.60;;;6.07;;
30147;SDS011;16960;49.404;8.248;2024-01-30T11:37:02;6.27;;;5.77;;
30147;SDS011;16960;49.404;8.248;2024-01-30T11:39:33;6.20;;;5.70;;
30147;SDS011;16960;49.404;8.248;2024-01-30T11:42:02;6.23;;;5.73;;
30147;SDS011;16960;49.404;8.248;2024-01-30T11:44:31;5.50;;;5.10;;
30147;SDS011;16960;49.404;8.248;2024-01-30T11:46:59;6.20;;;5.70;;
30147;SDS011;16960;49.404;8.248;2024-01-30T11:49:28;6.20;;;5.67;;
30147;SDS011;16960;49.404;8.248;2024-01-30T11:51:55;5.50;;;5.10;;
30147;SDS011;16960;49.404;8.248;2024-01-30T11:54:22;5.63;;;5.23;;
30147;SDS011;16960;49.404;8.248;2024-01-30T11:56:49;5.80;;;5.33;;
30147;SDS011;16960;49.404;8.248;2024-01-30T11:59:16;7.50;;;6.10;;
30147;SDS011;16960;49.404;8.248;2024-01-30T12:01:43;6.17;;;5.67;;
30147;SDS011;16960;49.404;8.248;2024-01-30T12:04:11;6.43;;;5.83;;
30147;SDS011;16960;49.404;8.248;2024-01-30T12:06:38;5.60;;;5.20;;
30147;SDS011;16960;49.404;8.248;2024-01-30T12:09:06;5.33;;;4.93;;
30147;SDS011;16960;49.404;8.248;2024-01-30T12:11:43;6.47;;;5.97;;
30147;SDS011;16960;49.404;8.248;2024-01-30T12:14:11;5.47;;;4.97;;
30147;SDS011;16960;49.404;8.248;2024-01-30T12:16:38;5.40;;;5.00;;
30147;SDS011;16960;49.404;8.248;2024-01-30T12:19:06;6.27;;;5.70;;
30147;SDS011;16960;49.404;8.248;2024-01-30T12:21:35;5.43;;;4.93;;
30147;SDS011;16960;49.404;8.248;2024-01-30T12:24:02;6.13;;;5.63;;
30147;SDS011;16960;49.404;8.248;2024-01-30T12:26:32;5.70;;;5.23;;
30147;SDS011;16960;49.404;8.248;2024-01-30T12:28:59;5.57;;;5.17;;
30147;SDS011;16960;49.404;8.248;2024-01-30T12:31:26;5.10;;;4.70;;
30147;SDS011;16960;49.404;8.248;2024-01-30T12:33:53;5.53;;;5.13;;
30147;SDS011;16960;49.404;8.248;2024-01-30T12:36:21;5.43;;;5.03;;
30147;SDS011;16960;49.404;8.248;2024-01-30T12:38:50;6.17;;;5.67;;
30147;SDS011;16960;49.404;8.248;2024-01-30T12:41:18;5.87;;;5.37;;
30147;SDS011;16960;49.404;8.248;2024-01-30T12:43:46;5.60;;;5.13;;
30147;SDS011;16960;49.404;8.248;2024-01-30T12:46:13;6.13;;;5.63;;
30147;SDS011;16960;49.404;8.248;2024-01-30T12:48:43;5.40;;;5.00;;
30147;SDS011;16960;49.404;8.248;2024-01-30T12:51:10;4.67;;;4.30;;
30147;SDS011;16960;49.404;8.248;2024-01-30T12:53:36;6.27;;;5.43;;
30147;SDS011;16960;49.404;8.248;2024-01-30T12:56:05;5.03;;;4.63;;
30147;SDS011;16960;49.404;8.248;2024-01-30T12:58:32;5.23;;;4.83;;
30147;SDS011;16960;49.404;8.248;2024-01-30T13:00:59;5.30;;;4.90;;
30147;SDS011;16960;49.404;8.248;2024-01-30T13:03:26;5.60;;;5.10;;
30147;SDS011;16960;49.404;8.248;2024-01-30T13:05:53;4.93;;;4.43;;
30147;SDS011;16960;49.404;8.248;2024-01-30T13:08:20;5.57;;;5.10;;
30147;SDS011;16960;49.404;8.248;2024-01-30T13:10:47;5.40;;;4.90;;
30147;SDS011;16960;49.404;8.248;2024-01-30T13:13:15;5.20;;;4.70;;
30147;SDS011;16960;49.404;8.248;2024-01-30T13:15:42;5.20;;;4.80;;
30147;SDS011;16960;49.404;8.248;2024-01-30T13:18:09;5.37;;;4.97;;
30147;SDS011;16960;49.404;8.248;2024-01-30T13:20:36;5.30;;;4.80;;
30147;SDS011;16960;49.404;8.248;2024-01-30T13:23:03;5.23;;;4.83;;
30147;SDS011;16960;49.404;8.248;2024-01-30T13:25:30;4.93;;;4.50;;
30147;SDS011;16960;49.404;8.248;2024-01-30T13:27:57;5.63;;;5.23;;
30147;SDS011;16960;49.404;8.248;2024-01-30T13:30:25;5.27;;;4.83;;
30147;SDS011;16960;49.404;8.248;2024-01-30T13:32:52;4.67;;;4.37;;
30147;SDS011;16960;49.404;8.248;2024-01-30T13:35:20;5.17;;;4.67;;
30147;SDS011;16960;49.404;8.248;2024-01-30T13:37:47;4.80;;;4.40;;
30147;SDS011;16960;49.404;8.248;2024-01-30T13:40:13;5.10;;;4.70;;
30147;SDS011;16960;49.404;8.248;2024-01-30T13:42:41;4.30;;;4.00;;
30147;SDS011;16960;49.404;8.248;2024-01-30T13:45:08;4.87;;;4.47;;
30147;SDS011;16960;49.404;8.248;2024-01-30T13:47:37;4.90;;;4.47;;
30147;SDS011;16960;49.404;8.248;2024-01-30T13:50:04;5.00;;;4.60;;
30147;SDS011;16960;49.404;8.248;2024-01-30T13:52:32;4.83;;;4.43;;
30147;SDS011;16960;49.404;8.248;2024-01-30T13:55:00;5.07;;;4.70;;
30147;SDS011;16960;49.404;8.248;2024-01-30T13:57:27;4.33;;;4.03;;
30147;SDS011;16960;49.404;8.248;2024-01-30T13:59:54;4.50;;;4.20;;
30147;SDS011;16960;49.404;8.248;2024-01-30T14:02:22;4.40;;;4.03;;
30147;SDS011;16960;49.404;8.248;2024-01-30T14:04:50;5.07;;;4.67;;
30147;SDS011;16960;49.404;8.248;2024-01-30T14:07:17;4.43;;;4.10;;
30147;SDS011;16960;49.404;8.248;2024-01-30T14:09:44;5.20;;;4.80;;
30147;SDS011;16960;49.404;8.248;2024-01-30T14:12:11;4.50;;;4.10;;
30147;SDS011;16960;49.404;8.248;2024-01-30T14:14:38;4.40;;;4.00;;
30147;SDS011;16960;49.404;8.248;2024-01-30T14:17:06;4.67;;;4.30;;
30147;SDS011;16960;49.404;8.248;2024-01-30T14:19:33;4.33;;;3.93;;
30147;SDS011;16960;49.404;8.248;2024-01-30T14:22:02;4.30;;;4.00;;
30147;SDS011;16960;49.404;8.248;2024-01-30T14:24:29;4.30;;;4.00;;
30147;SDS011;16960;49.404;8.248;2024-01-30T14:26:56;4.00;;;3.77;;
30147;SDS011;16960;49.404;8.248;2024-01-30T14:29:24;5.07;;;4.57;;
30147;SDS011;16960;49.404;8.248;2024-01-30T14:31:51;5.40;;;4.90;;
30147;SDS011;16960;49.404;8.248;2024-01-30T14:34:20;4.80;;;4.43;;
30147;SDS011;16960;49.404;8.248;2024-01-30T14:36:47;4.47;;;4.10;;
30147;SDS011;16960;49.404;8.248;2024-01-30T14:39:15;5.50;;;4.50;;
30147;SDS011;16960;49.404;8.248;2024-01-30T14:41:43;4.20;;;3.87;;
30147;SDS011;16960;49.404;8.248;2024-01-30T14:44:10;4.07;;;3.77;;
30147;SDS011;16960;49.404;8.248;2024-01-30T14:46:37;4.47;;;4.13;;
30147;SDS011;16960;49.404;8.248;2024-01-30T14:49:04;4.47;;;4.10;;
30147;SDS011;16960;49.404;8.248;2024-01-30T14:51:32;5.00;;;4.40;;